Time;durP1;ratioP1;P1;durP2;ratioP2;P2;SDS_P1;SDS_P2;PMS_P1;PMS_P2;Temp;Humidity;BMP_temperature;BMP_pressure;BME280_temperature;BME280_humidity;BME280_pressure;Samples;Min_cycle;Max_cycle;Signal;HPM_P1;HPM_P2
2022/04/20 00:01:16;;;;;;;4.23;3.10;;;;;;;;;;4983305;28;20225;-79
2022/04/20 00:03:42;;;;;;;4.90;3.00;;;;;;;;;;4977232;28;20253;-80
2022/04/20 00:06:07;;;;;;;3.33;3.03;;;;;;;;;;4979471;28;20252;-82
2022/04/20 00:08:33;;;;;;;6.13;3.50;;;;;;;;;;4976116;28;20226;-82
2022/04/20 00:10:59;;;;;;;3.67;3.13;;;;;;;;;;4992562;28;20308;-83
2022/04/20 00:13:25;;;;;;;6.43;3.50;;;;;;;;;;4971294;28;20237;-83
2022/04/20 00:15:50;;;;;;;4.90;3.30;;;;;;;;;;4975119;28;20225;-82
2022/04/20 00:18:16;;;;;;;4.10;3.40;;;;;;;;;;4970394;28;20241;-82
2022/04/20 00:20:41;;;;;;;3.93;3.23;;;;;;;;;;4973942;28;20307;-81
2022/04/20 00:23:06;;;;;;;5.10;3.40;;;;;;;;;;4984117;28;20252;-80
2022/04/20 00:25:33;;;;;;;4.50;3.33;;;;;;;;;;4975304;28;20248;-82
2022/04/20 00:27:58;;;;;;;6.87;3.80;;;;;;;;;;4968952;28;20622;-82
2022/04/20 00:30:24;;;;;;;5.30;3.83;;;;;;;;;;4974142;28;20229;-80
2022/04/20 00:32:49;;;;;;;5.63;3.40;;;;;;;;;;4990647;28;20241;-82
2022/04/20 00:35:15;;;;;;;4.20;3.50;;;;;;;;;;4995757;28;20289;-81
2022/04/20 00:37:43;;;;;;;3.90;3.50;;;;;;;;;;4977073;28;20307;-83
2022/04/20 00:40:09;;;;;;;3.97;3.50;;;;;;;;;;4973513;28;20612;-83
2022/04/20 00:42:36;;;;;;;4.53;3.50;;;;;;;;;;4977887;28;20789;-84
2022/04/20 00:45:02;;;;;;;4.43;4.00;;;;;;;;;;4978785;28;20300;-82
2022/04/20 00:47:27;;;;;;;4.67;3.90;;;;;;;;;;4963669;28;20232;-83
2022/04/20 00:49:55;;;;;;;4.20;3.60;;;;;;;;;;4974422;28;20225;-83
2022/04/20 00:52:21;;;;;;;3.73;3.43;;;;;;;;;;4970344;28;20217;-82
2022/04/20 00:54:47;;;;;;;4.53;3.67;;;;;;;;;;4976818;28;20713;-82
2022/04/20 00:57:15;;;;;;;5.43;3.53;;;;;;;;;;4974985;28;20260;-82
2022/04/20 00:59:41;;;;;;;4.20;3.40;;;;;;;;;;4988281;28;20312;-81
2022/04/20 01:02:06;;;;;;;4.87;3.83;;;;;;;;;;4971701;28;20217;-81
2022/04/20 01:04:34;;;;;;;5.73;3.80;;;;;;;;;;4976618;28;20218;-82
2022/04/20 01:07:17;;;;;;;4.23;3.60;;;;;;;;;;4979494;28;20695;-80
2022/04/20 01:10:18;;;;;;;4.97;3.43;;;;;;;;;;4982831;28;20249;-83
2022/04/20 01:13:04;;;;;;;4.43;3.40;;;;;;;;;;4979697;28;20231;-83
2022/04/20 01:15:41;;;;;;;5.00;3.60;;;;;;;;;;4972421;28;20356;-83
2022/04/20 01:18:23;;;;;;;4.47;3.57;;;;;;;;;;4972428;28;20589;-81
2022/04/20 01:21:17;;;;;;;6.43;3.70;;;;;;;;;;4977126;28;20721;-81
2022/04/20 01:24:06;;;;;;;7.40;3.70;;;;;;;;;;4962842;28;20241;-81
2022/04/20 01:26:52;;;;;;;4.93;4.00;;;;;;;;;;4989018;28;20236;-83
2022/04/20 01:29:33;;;;;;;4.70;3.70;;;;;;;;;;4979039;28;20225;-81
2022/04/20 01:32:28;;;;;;;7.43;3.97;;;;;;;;;;4985226;28;20225;-82
2022/04/20 01:35:17;;;;;;;5.03;4.20;;;;;;;;;;4981870;28;20236;-81
2022/04/20 01:37:42;;;;;;;4.20;3.80;;;;;;;;;;4981766;28;20225;-81
2022/04/20 01:40:08;;;;;;;5.67;3.90;;;;;;;;;;4982893;28;20749;-83
2022/04/20 01:42:34;;;;;;;5.80;3.77;;;;;;;;;;4973139;28;20232;-83
2022/04/20 01:45:03;;;;;;;4.10;3.63;;;;;;;;;;4977286;28;20224;-82
2022/04/20 01:47:43;;;;;;;5.33;3.77;;;;;;;;;;4976880;28;20217;-82
2022/04/20 01:50:22;;;;;;;4.10;3.53;;;;;;;;;;4979583;28;20233;-83
2022/04/20 01:53:14;;;;;;;5.23;3.97;;;;;;;;;;4977813;28;20616;-82
2022/04/20 01:56:06;;;;;;;5.37;3.67;;;;;;;;;;4985910;28;20225;-82
2022/04/20 01:59:02;;;;;;;4.63;3.83;;;;;;;;;;4983266;28;20908;-82
2022/04/20 02:04:36;;;;;;;6.33;4.13;;;;;;;;;;4973846;28;20698;-81
2022/04/20 02:07:04;;;;;;;5.07;4.00;;;;;;;;;;4984387;28;20227;-81
2022/04/20 02:09:35;;;;;;;5.37;4.00;;;;;;;;;;4980042;28;20280;-81
2022/04/20 02:12:07;;;;;;;5.03;3.83;;;;;;;;;;4974225;28;20654;-82
2022/04/20 02:15:02;;;;;;;4.77;3.90;;;;;;;;;;4985907;28;20225;-81
2022/04/20 02:17:50;;;;;;;6.30;4.53;;;;;;;;;;4979300;28;20210;-81
2022/04/20 02:20:22;;;;;;;6.20;3.90;;;;;;;;;;4968506;28;20236;-82
2022/04/20 02:22:48;;;;;;;8.03;4.57;;;;;;;;;;4972019;28;20256;-80
2022/04/20 02:25:13;;;;;;;5.70;4.13;;;;;;;;;;4973853;28;20224;-81
2022/04/20 02:27:39;;;;;;;5.67;4.40;;;;;;;;;;4973970;28;20221;-82
2022/04/20 02:30:07;;;;;;;5.43;4.40;;;;;;;;;;4967490;28;20225;-81
2022/04/20 02:32:38;;;;;;;7.43;4.83;;;;;;;;;;4971453;28;20245;-81
2022/04/20 02:35:04;;;;;;;7.83;5.07;;;;;;;;;;4955837;28;20225;-83
2022/04/20 02:37:29;;;;;;;5.67;4.60;;;;;;;;;;4995844;28;20320;-82
2022/04/20 02:39:55;;;;;;;5.50;4.90;;;;;;;;;;4993251;28;20229;-80
2022/04/20 02:42:22;;;;;;;5.30;4.40;;;;;;;;;;4973305;28;20316;-80
2022/04/20 02:44:48;;;;;;;6.70;4.70;;;;;;;;;;4975564;28;20248;-82
2022/04/20 02:47:17;;;;;;;6.30;4.97;;;;;;;;;;4971612;28;20217;-81
2022/04/20 02:49:42;;;;;;;6.70;5.07;;;;;;;;;;4970948;28;20325;-81
2022/04/20 02:52:10;;;;;;;5.03;4.23;;;;;;;;;;4965586;28;20221;-84
2022/04/20 02:54:35;;;;;;;6.27;5.00;;;;;;;;;;4978838;28;20300;-81
2022/04/20 02:57:01;;;;;;;6.03;4.90;;;;;;;;;;4971185;28;20237;-83
2022/04/20 02:59:26;;;;;;;7.20;4.97;;;;;;;;;;4969234;28;20257;-83
2022/04/20 03:01:57;;;;;;;7.50;4.40;;;;;;;;;;4974872;28;20656;-82
2022/04/20 03:04:24;;;;;;;5.60;4.60;;;;;;;;;;4970685;28;20236;-83
2022/04/20 03:06:50;;;;;;;6.43;4.93;;;;;;;;;;4970479;28;20303;-82
2022/04/20 03:09:24;;;;;;;6.87;5.00;;;;;;;;;;4973164;28;20300;-82
2022/04/20 03:11:50;;;;;;;7.03;4.93;;;;;;;;;;4971124;28;20240;-82
2022/04/20 03:14:19;;;;;;;7.37;5.33;;;;;;;;;;4980933;28;20277;-83
2022/04/20 03:16:46;;;;;;;6.73;4.70;;;;;;;;;;4971998;28;20232;-83
2022/04/20 03:19:13;;;;;;;6.57;5.00;;;;;;;;;;4957244;28;20217;-82
2022/04/20 03:21:39;;;;;;;5.93;4.87;;;;;;;;;;4964811;28;20241;-83
2022/04/20 03:24:05;;;;;;;6.53;4.87;;;;;;;;;;4970094;28;20305;-82
2022/04/20 03:26:49;;;;;;;5.93;4.83;;;;;;;;;;4976650;28;20232;-83
2022/04/20 03:29:28;;;;;;;6.10;5.47;;;;;;;;;;4966806;28;20690;-83
2022/04/20 03:31:54;;;;;;;7.60;5.53;;;;;;;;;;4981276;28;20248;-82
2022/04/20 03:34:24;;;;;;;7.13;5.50;;;;;;;;;;4974142;28;20406;-80
2022/04/20 03:36:54;;;;;;;5.83;5.30;;;;;;;;;;4970005;28;20796;-83
2022/04/20 03:39:22;;;;;;;6.07;5.40;;;;;;;;;;4974348;28;20229;-84
2022/04/20 03:41:50;;;;;;;8.33;5.93;;;;;;;;;;4976770;28;20243;-83
2022/04/20 03:44:15;;;;;;;6.10;5.10;;;;;;;;;;5002069;28;20229;-84
2022/04/20 03:46:43;;;;;;;6.70;5.87;;;;;;;;;;4984712;28;20238;-79
2022/04/20 03:49:11;;;;;;;7.30;5.80;;;;;;;;;;4969249;28;20304;-79
2022/04/20 03:51:37;;;;;;;5.93;5.33;;;;;;;;;;4971107;28;20271;-78
2022/04/20 03:54:03;;;;;;;9.57;5.63;;;;;;;;;;4971269;28;20225;-78
2022/04/20 03:59:18;;;;;;;8.10;5.50;;;;;;;;;;4984146;28;20230;-78
2022/04/20 04:01:46;;;;;;;7.70;5.30;;;;;;;;;;4971338;28;20236;-79
2022/04/20 04:04:11;;;;;;;6.73;5.30;;;;;;;;;;4983933;28;20718;-80
2022/04/20 04:06:49;;;;;;;9.00;5.90;;;;;;;;;;4980632;28;20229;-79
2022/04/20 04:09:18;;;;;;;8.80;5.50;;;;;;;;;;4982223;28;20229;-78
2022/04/20 04:11:46;;;;;;;7.60;5.40;;;;;;;;;;4988585;28;20856;-78
2022/04/20 04:14:11;;;;;;;8.90;5.83;;;;;;;;;;4976549;28;20240;-78
2022/04/20 04:16:37;;;;;;;11.77;6.57;;;;;;;;;;4972321;28;20225;-78
2022/04/20 04:19:06;;;;;;;8.47;6.10;;;;;;;;;;4973523;28;20217;-77
2022/04/20 04:21:32;;;;;;;9.77;6.50;;;;;;;;;;4973053;28;20265;-79
2022/04/20 04:23:58;;;;;;;7.37;6.10;;;;;;;;;;4975079;28;20706;-79
2022/04/20 04:26:42;;;;;;;10.83;7.83;;;;;;;;;;4976550;28;20244;-78
2022/04/20 04:29:09;;;;;;;10.57;7.03;;;;;;;;;;4975957;28;20253;-78
2022/04/20 04:31:37;;;;;;;9.37;6.80;;;;;;;;;;4985743;28;20221;-78
2022/04/20 04:34:03;;;;;;;8.30;6.70;;;;;;;;;;4977668;28;20253;-78
2022/04/20 04:36:29;;;;;;;9.07;6.27;;;;;;;;;;4988602;28;20281;-78
2022/04/20 04:38:57;;;;;;;8.70;6.70;;;;;;;;;;4997629;28;20269;-79
2022/04/20 04:41:28;;;;;;;8.43;6.50;;;;;;;;;;4973997;28;20228;-79
2022/04/20 04:44:01;;;;;;;8.73;6.53;;;;;;;;;;4978949;28;20727;-79
2022/04/20 04:50:01;;;;;;;10.27;7.37;;;;;;;;;;4995658;28;20231;-78
2022/04/20 04:52:31;;;;;;;8.60;6.70;;;;;;;;;;4982902;28;20234;-79
2022/04/20 04:55:02;;;;;;;7.10;6.40;;;;;;;;;;4974347;28;20229;-78
2022/04/20 04:57:31;;;;;;;9.17;7.10;;;;;;;;;;4975756;28;20225;-79
2022/04/20 05:00:01;;;;;;;9.20;6.20;;;;;;;;;;4979861;28;20232;-79
2022/04/20 05:02:30;;;;;;;6.70;5.93;;;;;;;;;;4970535;28;20768;-79
2022/04/20 05:04:57;;;;;;;9.30;7.50;;;;;;;;;;4982778;28;20444;-79
2022/04/20 05:07:25;;;;;;;9.32;7.97;;;;;;;;;;4981311;28;20450;-78
2022/04/20 05:09:59;;;;;;;12.37;7.70;;;;;;;;;;4983949;28;20291;-78
2022/04/20 05:12:24;;;;;;;9.00;6.63;;;;;;;;;;4977714;28;20293;-79
2022/04/20 05:14:53;;;;;;;10.40;7.00;;;;;;;;;;4969980;28;20685;-78
2022/04/20 05:17:18;;;;;;;8.30;7.07;;;;;;;;;;4990921;28;20256;-78
2022/04/20 05:19:53;;;;;;;12.55;9.43;;;;;;;;;;4994542;28;20471;-78
2022/04/20 05:22:25;;;;;;;10.33;7.83;;;;;;;;;;4984265;28;20240;-82
2022/04/20 05:24:55;;;;;;;10.43;7.27;;;;;;;;;;4998157;28;20260;-81
2022/04/20 05:27:22;;;;;;;9.60;7.60;;;;;;;;;;4988995;28;20222;-83
2022/04/20 05:29:52;;;;;;;10.40;7.47;;;;;;;;;;4988239;28;20221;-83
2022/04/20 05:32:17;;;;;;;9.93;8.20;;;;;;;;;;5008903;22;20215;-75
2022/04/20 05:34:45;;;;;;;12.20;7.87;;;;;;;;;;5020640;28;20232;-78
2022/04/20 05:43:01;;;;;;;10.43;7.73;;;;;;;;;;5007380;28;20652;-77
2022/04/20 05:45:30;;;;;;;8.83;7.37;;;;;;;;;;4973578;28;20213;-77
2022/04/20 05:48:14;;;;;;;8.50;7.33;;;;;;;;;;5003856;28;20220;-79
2022/04/20 05:50:40;;;;;;;8.77;7.17;;;;;;;;;;5002172;28;20231;-77
2022/04/20 05:53:09;;;;;;;11.33;7.80;;;;;;;;;;4983776;28;20226;-78
2022/04/20 05:55:35;;;;;;;9.57;7.57;;;;;;;;;;4988042;28;20227;-77
2022/04/20 05:58:03;;;;;;;8.80;7.00;;;;;;;;;;5003877;28;20235;-77
2022/04/20 06:00:31;;;;;;;8.80;7.17;;;;;;;;;;4977323;28;20728;-77
2022/04/20 06:03:19;;;;;;;8.67;6.20;;;;;;;;;;5031399;28;20739;-77
2022/04/20 06:05:53;;;;;;;7.47;6.70;;;;;;;;;;5006368;28;20341;-75
2022/04/20 06:08:40;;;;;;;9.87;6.67;;;;;;;;;;4980439;28;20217;-76
2022/04/20 06:11:35;;;;;;;8.50;6.67;;;;;;;;;;5005903;28;20221;-76
2022/04/20 06:14:00;;;;;;;7.83;6.33;;;;;;;;;;5013437;28;20235;-76
2022/04/20 06:16:41;;;;;;;8.87;6.40;;;;;;;;;;4979386;28;20223;-76
2022/04/20 06:19:10;;;;;;;8.97;6.43;;;;;;;;;;4995100;28;20227;-76
2022/04/20 06:21:46;;;;;;;8.33;6.13;;;;;;;;;;4983690;28;20208;-77
2022/04/20 06:24:20;;;;;;;7.87;6.40;;;;;;;;;;5016433;28;20216;-78
2022/04/20 06:26:55;;;;;;;11.40;6.77;;;;;;;;;;4999927;28;20219;-78
2022/04/20 06:29:44;;;;;;;8.60;6.30;;;;;;;;;;4998672;28;20217;-77
2022/04/20 06:32:28;;;;;;;8.10;6.33;;;;;;;;;;5001172;28;20239;-77
2022/04/20 06:35:32;;;;;;;7.10;6.13;;;;;;;;;;4968588;28;20228;-78
2022/04/20 06:38:13;;;;;;;7.53;6.47;;;;;;;;;;5014493;28;20216;-76
2022/04/20 06:40:58;;;;;;;7.03;5.87;;;;;;;;;;5015338;28;20605;-77
2022/04/20 06:43:38;;;;;;;7.27;5.90;;;;;;;;;;4996857;28;20711;-78
2022/04/20 06:46:24;;;;;;;7.43;6.03;;;;;;;;;;5019715;28;20268;-77
2022/04/20 06:49:03;;;;;;;7.53;6.03;;;;;;;;;;5004483;28;20308;-78
2022/04/20 07:00:04;;;;;;;7.57;5.57;;;;;;;;;;5007397;28;20230;-78
2022/04/20 07:03:06;;;;;;;7.00;5.60;;;;;;;;;;4990455;28;20219;-78
2022/04/20 07:05:52;;;;;;;6.80;4.97;;;;;;;;;;4995750;28;20720;-73
2022/04/20 07:08:32;;;;;;;6.90;5.10;;;;;;;;;;4977513;28;20753;-77
2022/04/20 07:11:15;;;;;;;5.80;5.20;;;;;;;;;;5035153;28;20212;-77
2022/04/20 07:13:42;;;;;;;7.00;4.90;;;;;;;;;;5030000;28;20217;-77
2022/04/20 07:16:08;;;;;;;6.47;5.00;;;;;;;;;;4988868;28;20231;-77
2022/04/20 07:18:40;;;;;;;6.50;5.30;;;;;;;;;;4979442;28;20224;-76
2022/04/20 07:21:24;;;;;;;5.83;4.83;;;;;;;;;;5014769;28;20755;-76
2022/04/20 07:24:04;;;;;;;6.97;4.90;;;;;;;;;;4984796;28;20280;-77
2022/04/20 07:26:50;;;;;;;7.13;5.00;;;;;;;;;;4982427;28;20217;-77
2022/04/20 07:29:36;;;;;;;5.87;4.80;;;;;;;;;;4994701;28;20604;-76
2022/04/20 07:32:05;;;;;;;6.57;4.90;;;;;;;;;;5016933;28;20220;-76
2022/04/20 07:34:51;;;;;;;7.10;5.00;;;;;;;;;;5010886;28;20232;-76
2022/04/20 07:37:35;;;;;;;7.10;4.77;;;;;;;;;;4997562;28;20220;-76
2022/04/20 07:40:31;;;;;;;7.13;5.23;;;;;;;;;;4997718;28;20230;-75
2022/04/20 07:43:15;;;;;;;7.93;5.10;;;;;;;;;;5013393;28;20220;-76
2022/04/20 07:46:16;;;;;;;6.30;5.30;;;;;;;;;;5009932;28;20220;-76
2022/04/20 07:50:18;;;;;;;6.00;5.00;;;;;;;;;;5014383;28;20228;-76
2022/04/20 07:52:04;;;;;;;6.43;4.83;;;;;;;;;;4988262;28;20372;-77
2022/04/20 07:55:00;;;;;;;6.03;4.60;;;;;;;;;;5000399;28;20752;-76
2022/04/20 07:57:35;;;;;;;6.43;5.07;;;;;;;;;;5012916;28;20275;-76
2022/04/20 08:00:16;;;;;;;6.07;4.77;;;;;;;;;;5001804;28;20634;-76
2022/04/20 08:03:08;;;;;;;7.83;5.07;;;;;;;;;;4974687;28;20311;-76
2022/04/20 08:05:34;;;;;;;5.73;4.60;;;;;;;;;;5012009;28;20867;-75
2022/04/20 08:08:00;;;;;;;5.70;4.43;;;;;;;;;;4997416;28;20307;-75
2022/04/20 08:10:32;;;;;;;5.80;4.63;;;;;;;;;;4968333;28;20611;-76
2022/04/20 08:14:09;;;;;;;5.80;4.70;;;;;;;;;;5011716;28;20622;-76
2022/04/20 08:15:46;;;;;;;10.17;4.73;;;;;;;;;;5011180;28;20231;-76
2022/04/20 08:18:12;;;;;;;4.73;4.30;;;;;;;;;;5005618;28;20205;-75
2022/04/20 08:21:05;;;;;;;5.60;4.57;;;;;;;;;;5014859;28;20307;-75
2022/04/20 08:23:37;;;;;;;6.80;4.63;;;;;;;;;;5002715;28;20224;-75
2022/04/20 08:26:03;;;;;;;6.07;4.30;;;;;;;;;;4967764;28;20221;-77
2022/04/20 08:28:30;;;;;;;4.93;4.43;;;;;;;;;;5010257;28;20285;-76
2022/04/20 08:30:59;;;;;;;8.57;4.90;;;;;;;;;;5015359;28;20216;-76
2022/04/20 08:33:28;;;;;;;5.77;4.30;;;;;;;;;;4995621;28;20699;-76
2022/04/20 08:36:01;;;;;;;5.97;4.77;;;;;;;;;;4986738;28;20319;-77
2022/04/20 08:38:27;;;;;;;5.63;4.50;;;;;;;;;;5002352;28;20236;-75
2022/04/20 08:40:55;;;;;;;6.23;4.50;;;;;;;;;;4998381;28;20224;-76
2022/04/20 08:43:21;;;;;;;4.67;3.90;;;;;;;;;;4988380;28;20212;-76
2022/04/20 08:45:48;;;;;;;5.37;4.20;;;;;;;;;;4976941;28;20633;-76
2022/04/20 08:48:18;;;;;;;4.33;3.57;;;;;;;;;;4987228;28;20228;-76
2022/04/20 08:50:44;;;;;;;4.07;3.53;;;;;;;;;;5025213;28;20224;-76
2022/04/20 08:53:09;;;;;;;5.13;3.10;;;;;;;;;;5007965;28;20275;-76
2022/04/20 08:55:35;;;;;;;3.10;2.80;;;;;;;;;;5002750;28;20239;-75
2022/04/20 08:58:00;;;;;;;4.03;2.83;;;;;;;;;;5024785;28;20228;-76
2022/04/20 09:00:27;;;;;;;3.40;3.10;;;;;;;;;;5019095;28;20371;-75
2022/04/20 09:02:56;;;;;;;4.20;2.87;;;;;;;;;;5012145;28;20243;-76
2022/04/20 09:05:23;;;;;;;3.80;2.90;;;;;;;;;;5003843;28;20228;-75
2022/04/20 09:07:48;;;;;;;4.03;3.10;;;;;;;;;;5016232;28;20216;-76
2022/04/20 09:10:17;;;;;;;4.50;2.90;;;;;;;;;;4983228;28;20588;-77
2022/04/20 09:12:44;;;;;;;3.30;2.80;;;;;;;;;;4988376;28;20258;-75
2022/04/20 09:15:15;;;;;;;3.77;3.10;;;;;;;;;;5008501;28;20237;-75
2022/04/20 09:17:44;;;;;;;3.07;2.70;;;;;;;;;;4998012;28;20358;-76
2022/04/20 09:20:15;;;;;;;2.97;2.70;;;;;;;;;;5015604;28;20239;-76
2022/04/20 09:22:40;;;;;;;4.03;2.50;;;;;;;;;;5003089;28;20228;-75
2022/04/20 09:25:16;;;;;;;5.27;2.50;;;;;;;;;;5026035;28;20299;-75
2022/04/20 09:27:44;;;;;;;3.80;2.80;;;;;;;;;;5008523;28;20281;-75
2022/04/20 09:30:10;;;;;;;4.93;2.53;;;;;;;;;;5012647;28;20324;-76
2022/04/20 09:32:42;;;;;;;2.93;2.07;;;;;;;;;;5030025;28;20219;-75
2022/04/20 09:35:18;;;;;;;4.33;2.03;;;;;;;;;;5024675;28;20220;-75
2022/04/20 09:38:05;;;;;;;2.97;2.00;;;;;;;;;;5033424;28;20215;-76
2022/04/20 09:41:10;;;;;;;2.20;2.00;;;;;;;;;;4993223;28;20220;-76
2022/04/20 09:43:36;;;;;;;2.83;2.00;;;;;;;;;;4994572;28;20219;-76
2022/04/20 09:48:50;;;;;;;2.53;1.80;;;;;;;;;;4969718;28;20248;-76
2022/04/20 09:49:10;;;;;;;3.27;1.73;;;;;;;;;;5010744;28;20598;-76
2022/04/20 09:51:40;;;;;;;4.10;2.10;;;;;;;;;;5027776;28;20224;-76
2022/04/20 09:54:29;;;;;;;3.43;1.80;;;;;;;;;;4991185;28;20648;-77
2022/04/20 09:57:08;;;;;;;3.20;1.73;;;;;;;;;;4994319;28;20909;-76
2022/04/20 09:59:40;;;;;;;2.77;1.87;;;;;;;;;;5005675;28;20229;-76
2022/04/20 10:02:14;;;;;;;2.97;2.00;;;;;;;;;;4997597;28;20226;-76
2022/04/20 10:04:39;;;;;;;3.50;1.75;;;;;;;;;;5027617;28;20226;-76
2022/04/20 10:07:05;;;;;;;3.65;1.80;;;;;;;;;;5009673;28;20212;-77
2022/04/20 10:09:30;;;;;;;1.88;1.52;;;;;;;;;;5026350;28;20232;-75
2022/04/20 10:11:56;;;;;;;2.90;2.00;;;;;;;;;;4983812;28;20259;-77
2022/04/20 10:17:12;;;;;;;2.28;1.80;;;;;;;;;;4989401;28;20219;-75
2022/04/20 10:19:39;;;;;;;2.55;1.60;;;;;;;;;;4962421;28;20308;-75
2022/04/20 10:22:05;;;;;;;3.25;1.60;;;;;;;;;;5014068;28;20216;-76
2022/04/20 10:24:38;;;;;;;3.30;1.53;;;;;;;;;;5026117;28;20362;-76
2022/04/20 10:27:08;;;;;;;2.80;1.77;;;;;;;;;;4984033;28;20255;-75
2022/04/20 10:29:44;;;;;;;3.13;1.90;;;;;;;;;;5015668;28;20248;-75
2022/04/20 10:32:15;;;;;;;2.60;1.70;;;;;;;;;;5002826;28;20503;-75
2022/04/20 10:34:43;;;;;;;4.40;1.63;;;;;;;;;;5018962;28;20256;-76
2022/04/20 10:37:30;;;;;;;3.17;1.40;;;;;;;;;;4999695;28;20278;-77
2022/04/20 10:40:17;;;;;;;1.80;1.63;;;;;;;;;;5018985;28;20288;-75
2022/04/20 10:43:24;;;;;;;2.22;2.03;;;;;;;;;;4967685;28;20219;-76
2022/04/20 10:46:02;;;;;;;2.67;1.70;;;;;;;;;;5027997;28;20708;-77
2022/04/20 10:48:55;;;;;;;1.63;1.40;;;;;;;;;;4995817;28;20224;-76
2022/04/20 10:51:35;;;;;;;3.40;1.63;;;;;;;;;;4991897;28;20631;-77
2022/04/20 10:54:23;;;;;;;1.65;1.42;;;;;;;;;;5010960;28;20228;-75
2022/04/20 10:57:04;;;;;;;1.75;1.40;;;;;;;;;;5016870;28;20702;-75
2022/04/20 10:59:30;;;;;;;1.92;1.25;;;;;;;;;;4998409;28;20238;-76
2022/04/20 11:01:59;;;;;;;2.13;1.13;;;;;;;;;;4977120;28;20508;-76
2022/04/20 11:04:46;;;;;;;3.25;1.48;;;;;;;;;;5014584;28;20231;-77
2022/04/20 11:07:15;;;;;;;1.30;1.17;;;;;;;;;;5013877;28;20212;-75
2022/04/20 11:09:48;;;;;;;4.32;1.40;;;;;;;;;;4996773;28;20239;-75
2022/04/20 11:21:10;;;;;;;3.53;1.60;;;;;;;;;;4991939;28;20224;-74
2022/04/20 11:23:51;;;;;;;2.90;1.63;;;;;;;;;;5003804;28;20310;-76
2022/04/20 11:26:20;;;;;;;2.28;1.55;;;;;;;;;;5013892;28;20220;-74
2022/04/20 11:28:47;;;;;;;2.03;1.70;;;;;;;;;;5045742;28;20291;-76
2022/04/20 11:31:18;;;;;;;3.42;2.00;;;;;;;;;;4981105;28;20251;-77
2022/04/20 11:33:45;;;;;;;2.10;1.70;;;;;;;;;;4985404;28;20246;-75
2022/04/20 11:36:14;;;;;;;2.50;1.63;;;;;;;;;;4997746;28;20223;-74
2022/04/20 11:38:41;;;;;;;3.67;1.77;;;;;;;;;;4989178;28;20303;-75
2022/04/20 11:41:11;;;;;;;3.70;2.08;;;;;;;;;;5030946;28;20279;-75
2022/04/20 11:43:45;;;;;;;2.83;1.70;;;;;;;;;;5014699;28;20255;-75
2022/04/20 11:46:14;;;;;;;1.60;1.50;;;;;;;;;;4999622;28;20227;-76
2022/04/20 11:48:50;;;;;;;2.05;1.40;;;;;;;;;;5007132;28;20255;-75
2022/04/20 11:51:20;;;;;;;1.42;1.33;;;;;;;;;;4988096;28;20227;-75
2022/04/20 11:53:48;;;;;;;2.47;1.30;;;;;;;;;;4986592;28;20251;-75
2022/04/20 11:56:38;;;;;;;2.17;1.40;;;;;;;;;;4993074;28;20364;-75
2022/04/20 11:59:08;;;;;;;1.63;1.30;;;;;;;;;;4999927;28;20316;-76
2022/04/20 12:01:39;;;;;;;1.70;1.40;;;;;;;;;;4996736;28;20221;-76
2022/04/20 12:04:15;;;;;;;1.75;1.60;;;;;;;;;;4996324;28;20213;-77
2022/04/20 12:06:49;;;;;;;2.13;1.50;;;;;;;;;;4977714;28;20245;-77
2022/04/20 12:09:15;;;;;;;2.78;1.27;;;;;;;;;;5029185;28;20239;-77
2022/04/20 12:11:41;;;;;;;1.58;1.30;;;;;;;;;;4980635;28;20830;-77
2022/04/20 12:14:07;;;;;;;2.38;1.42;;;;;;;;;;5034121;28;20225;-76
2022/04/20 12:16:33;;;;;;;2.72;1.30;;;;;;;;;;4996660;28;20228;-75
2022/04/20 12:19:01;;;;;;;1.63;1.35;;;;;;;;;;4997186;28;20297;-75
2022/04/20 12:21:40;;;;;;;2.92;1.20;;;;;;;;;;4991475;28;20220;-76
2022/04/20 12:24:06;;;;;;;1.38;1.08;;;;;;;;;;5039636;28;20227;-80
2022/04/20 12:26:32;;;;;;;1.42;1.30;;;;;;;;;;5001270;28;20269;-76
2022/04/20 12:29:05;;;;;;;1.42;1.30;;;;;;;;;;5043047;28;20722;-78
2022/04/20 12:31:31;;;;;;;1.50;1.10;;;;;;;;;;4995684;28;20229;-77
2022/04/20 12:34:11;;;;;;;1.50;1.00;;;;;;;;;;5035916;28;20221;-75
2022/04/20 12:36:50;;;;;;;1.13;1.02;;;;;;;;;;5021123;28;20219;-76
2022/04/20 12:39:35;;;;;;;1.67;1.20;;;;;;;;;;5001753;28;20526;-77
2022/04/20 12:42:23;;;;;;;1.98;1.30;;;;;;;;;;4979580;28;20212;-77
2022/04/20 12:45:03;;;;;;;1.52;1.17;;;;;;;;;;5000167;28;20231;-76
2022/04/20 12:47:28;;;;;;;2.83;1.45;;;;;;;;;;4970784;28;20232;-76
2022/04/20 12:49:59;;;;;;;1.35;1.02;;;;;;;;;;5033748;28;20228;-76
2022/04/20 12:52:25;;;;;;;2.83;1.20;;;;;;;;;;5014086;28;20740;-76
2022/04/20 12:55:03;;;;;;;1.35;1.20;;;;;;;;;;5007893;28;20223;-75
2022/04/20 13:03:10;;;;;;;3.60;1.48;;;;;;;;;;5002995;28;20221;-76
2022/04/20 13:05:42;;;;;;;1.52;1.20;;;;;;;;;;4997369;28;20221;-76
2022/04/20 13:08:14;;;;;;;1.92;1.10;;;;;;;;;;5014727;28;20271;-75
2022/04/20 13:10:45;;;;;;;2.85;1.10;;;;;;;;;;5021230;28;20234;-75
2022/04/20 13:13:13;;;;;;;1.48;1.10;;;;;;;;;;5020744;28;20224;-75
2022/04/20 13:15:42;;;;;;;2.45;1.10;;;;;;;;;;5006542;28;20272;-76
2022/04/20 13:18:09;;;;;;;2.75;1.65;;;;;;;;;;5031718;28;20232;-77
2022/04/20 13:20:38;;;;;;;9.50;7.15;;;;;;;;;;5008643;28;20260;-77
2022/04/20 13:23:09;;;;;;;2.90;1.50;;;;;;;;;;5019175;28;20212;-77
2022/04/20 13:28:21;;;;;;;2.38;1.15;;;;;;;;;;5016887;28;20224;-76
2022/04/20 13:30:49;;;;;;;2.35;1.30;;;;;;;;;;4981537;28;20308;-76
2022/04/20 13:33:17;;;;;;;3.92;1.40;;;;;;;;;;4979811;28;20239;-75
2022/04/20 13:35:47;;;;;;;1.70;1.60;;;;;;;;;;5018120;28;20227;-77
2022/04/20 13:38:12;;;;;;;3.00;1.30;;;;;;;;;;4996942;28;20212;-74
2022/04/20 13:40:42;;;;;;;1.70;1.23;;;;;;;;;;5011961;28;20232;-74
2022/04/20 13:43:07;;;;;;;1.83;1.20;;;;;;;;;;5021326;28;20235;-74
2022/04/20 13:45:33;;;;;;;2.75;1.25;;;;;;;;;;4981882;28;20299;-73
2022/04/20 13:48:02;;;;;;;1.58;1.20;;;;;;;;;;4996974;28;20240;-74
2022/04/20 13:50:30;;;;;;;3.22;1.50;;;;;;;;;;4995397;28;20635;-75
2022/04/20 13:52:55;;;;;;;2.55;1.30;;;;;;;;;;5021095;28;20224;-75
2022/04/20 13:55:23;;;;;;;1.50;1.25;;;;;;;;;;4997791;28;20303;-76
2022/04/20 13:57:48;;;;;;;4.05;2.13;;;;;;;;;;5016474;28;20221;-75
2022/04/20 14:00:16;;;;;;;1.83;1.33;;;;;;;;;;5015077;28;20705;-74
2022/04/20 14:02:42;;;;;;;2.08;1.40;;;;;;;;;;5003807;28;20223;-75
2022/04/20 14:05:10;;;;;;;5.25;4.18;;;;;;;;;;4987239;28;20304;-76
2022/04/20 14:07:36;;;;;;;9.70;8.60;;;;;;;;;;5010370;28;20307;-77
2022/04/20 14:10:07;;;;;;;5.05;4.50;;;;;;;;;;4999439;28;20321;-77
2022/04/20 14:12:33;;;;;;;4.15;1.83;;;;;;;;;;4996854;28;20224;-80
2022/04/20 14:15:00;;;;;;;3.55;1.50;;;;;;;;;;4975433;28;20219;-76
2022/04/20 14:17:25;;;;;;;1.50;1.40;;;;;;;;;;5033968;28;20725;-75
2022/04/20 14:19:51;;;;;;;3.22;1.60;;;;;;;;;;4989229;28;20312;-76
2022/04/20 14:22:16;;;;;;;1.60;1.40;;;;;;;;;;5022585;28;20716;-75
2022/04/20 14:24:42;;;;;;;1.95;1.60;;;;;;;;;;5034417;28;20362;-74
2022/04/20 14:32:45;;;;;;;3.50;1.80;;;;;;;;;;5011321;28;20285;-76
2022/04/20 14:35:18;;;;;;;3.72;1.88;;;;;;;;;;4994564;28;20216;-76
2022/04/20 14:37:45;;;;;;;3.05;1.67;;;;;;;;;;5000604;28;20645;-75
2022/04/20 14:40:15;;;;;;;2.85;1.80;;;;;;;;;;5016226;28;20710;-75
2022/04/20 14:42:44;;;;;;;5.00;2.03;;;;;;;;;;4996568;28;20220;-75
2022/04/20 14:45:11;;;;;;;2.92;1.80;;;;;;;;;;4981325;28;20240;-74
2022/04/20 14:47:37;;;;;;;2.92;1.60;;;;;;;;;;5012720;28;20217;-75
2022/04/20 14:50:06;;;;;;;2.50;1.80;;;;;;;;;;4996098;28;20231;-75
2022/04/20 14:52:31;;;;;;;1.90;1.70;;;;;;;;;;5002780;28;20217;-75
2022/04/20 14:54:57;;;;;;;4.07;1.70;;;;;;;;;;4991994;28;20624;-75
2022/04/20 14:57:27;;;;;;;2.20;1.23;;;;;;;;;;4997084;28;20592;-76
2022/04/20 14:59:52;;;;;;;2.22;1.42;;;;;;;;;;5012902;28;20267;-76
2022/04/20 15:02:21;;;;;;;1.73;1.30;;;;;;;;;;4994004;28;20304;-75
2022/04/20 15:04:49;;;;;;;3.25;1.13;;;;;;;;;;4989659;28;20217;-75
2022/04/20 15:07:14;;;;;;;2.17;1.30;;;;;;;;;;4977725;28;20292;-75
2022/04/20 15:09:41;;;;;;;2.35;1.60;;;;;;;;;;4987662;28;20709;-74
2022/04/20 15:12:09;;;;;;;1.50;1.20;;;;;;;;;;5014553;28;20226;-75
2022/04/20 15:14:39;;;;;;;2.72;1.30;;;;;;;;;;4991003;28;20235;-75
2022/04/20 15:17:04;;;;;;;2.63;1.20;;;;;;;;;;5016927;28;20216;-75
2022/04/20 15:19:32;;;;;;;1.20;1.10;;;;;;;;;;5011284;28;20709;-75
2022/04/20 15:22:00;;;;;;;1.38;1.27;;;;;;;;;;4990156;28;20228;-76
2022/04/20 15:24:28;;;;;;;2.45;1.40;;;;;;;;;;5024550;28;20256;-77
2022/04/20 15:26:53;;;;;;;1.73;1.40;;;;;;;;;;4991624;28;20590;-76
2022/04/20 15:29:19;;;;;;;2.35;1.27;;;;;;;;;;5012856;28;20320;-77
2022/04/20 15:31:44;;;;;;;1.45;1.35;;;;;;;;;;4992830;28;20303;-76
2022/04/20 15:34:09;;;;;;;1.42;1.20;;;;;;;;;;4977774;28;20227;-77
2022/04/20 15:36:36;;;;;;;2.65;1.10;;;;;;;;;;4986725;28;20709;-77
2022/04/20 15:39:10;;;;;;;1.50;1.20;;;;;;;;;;4994470;28;20212;-77
2022/04/20 15:41:41;;;;;;;1.30;1.20;;;;;;;;;;4976816;28;20280;-77
2022/04/20 15:44:10;;;;;;;1.65;1.23;;;;;;;;;;4980069;28;20216;-77
2022/04/20 15:46:40;;;;;;;1.70;0.93;;;;;;;;;;5020866;28;20223;-77
2022/04/20 15:49:12;;;;;;;2.67;1.30;;;;;;;;;;5001491;28;20217;-78
2022/04/20 15:51:40;;;;;;;2.00;1.05;;;;;;;;;;5034453;28;20231;-76
2022/04/20 15:54:06;;;;;;;1.67;0.93;;;;;;;;;;5011824;28;20224;-79
2022/04/20 16:02:07;;;;;;;1.08;0.80;;;;;;;;;;5004287;28;20231;-77
2022/04/20 16:04:33;;;;;;;1.42;1.00;;;;;;;;;;5000526;28;20213;-76
2022/04/20 16:07:01;;;;;;;1.40;0.80;;;;;;;;;;4994506;28;20712;-78